createdAt,value
2023-06-08T00:00:45.856Z,101925.94
2023-06-08T00:03:13.683Z,101920.50
2023-06-08T00:05:48.323Z,101901.22
2023-06-08T00:08:15.104Z,101895.84
2023-06-08T00:10:46.426Z,101893.31
2023-06-08T00:13:14.158Z,101887.69
2023-06-08T00:15:41.571Z,101889.91
2023-06-08T00:18:10.069Z,101880.59
2023-06-08T00:20:37.184Z,101877.09
2023-06-08T00:23:06.816Z,101872.44
2023-06-08T00:25:33.589Z,101878.06
2023-06-08T00:28:00.641Z,101857.72
2023-06-08T00:30:27.840Z,101857.19
2023-06-08T00:32:54.730Z,101851.91
2023-06-08T00:35:21.561Z,101843.03
2023-06-08T00:37:49.723Z,101843.94
2023-06-08T00:40:16.430Z,101830.59
2023-06-08T00:42:43.174Z,101820.31
2023-06-08T00:45:11.317Z,101830.16
2023-06-08T00:47:41.146Z,101816.47
2023-06-08T00:50:09.574Z,101795.22
2023-06-08T00:52:40.438Z,101793.13
2023-06-08T00:55:09.314Z,101799.66
2023-06-08T00:57:38.140Z,101794.81
2023-06-08T01:00:13.061Z,101794.72
2023-06-08T01:02:41.584Z,101787.81
2023-06-08T01:05:08.935Z,101783.47
2023-06-08T01:07:50.576Z,101787.16
2023-06-08T01:10:43.291Z,101775.22
2023-06-08T01:13:28.641Z,101773.47
2023-06-08T01:16:03.093Z,101772.16
2023-06-08T01:18:33.813Z,101772.78
2023-06-08T01:21:50.172Z,101768.47
2023-06-08T01:24:21.298Z,101775.13
2023-06-08T01:26:52.051Z,101773.19
2023-06-08T01:29:26.677Z,101770.47
2023-06-08T01:31:53.624Z,101755.25
2023-06-08T01:34:21.797Z,101758.88
2023-06-08T01:37:06.259Z,101760.25
2023-06-08T01:39:46.366Z,101762.25
2023-06-08T01:42:16.265Z,101735.94
2023-06-08T01:44:51.389Z,101714.03
2023-06-08T01:47:22.323Z,101719.97
2023-06-08T01:49:50.778Z,101712.59
2023-06-08T01:52:20.903Z,101521.25
2023-06-08T01:54:50.058Z,101527.34
2023-06-08T01:57:16.957Z,101525.25
2023-06-08T01:59:43.873Z,101519.53
2023-06-08T02:02:10.647Z,101519.31
2023-06-08T02:04:37.393Z,101514.00
2023-06-08T02:07:04.400Z,101518.94
2023-06-08T02:09:31.365Z,101522.75
2023-06-08T02:12:08.402Z,101529.03
2023-06-08T02:14:36.184Z,101526.22
2023-06-08T02:17:04.769Z,101527.88
2023-06-08T02:19:34.698Z,101528.56
2023-06-08T02:22:01.689Z,101528.28
2023-06-08T02:24:28.589Z,101528.28
2023-06-08T02:26:59.112Z,101521.31
2023-06-08T02:29:26.082Z,101522.38
2023-06-08T02:31:52.978Z,101534.09
2023-06-08T02:34:19.747Z,101530.22
2023-06-08T02:36:48.388Z,101534.88
2023-06-08T02:39:16.498Z,101534.88
2023-06-08T02:41:43.450Z,101543.81
2023-06-08T02:44:10.202Z,101542.59
2023-06-08T02:46:37.642Z,101535.09
2023-06-08T02:49:04.430Z,101535.59
2023-06-08T02:51:31.332Z,101535.06
2023-06-08T02:53:58.141Z,101542.03
2023-06-08T02:56:26.633Z,101539.06
2023-06-08T02:58:53.396Z,101538.16
2023-06-08T03:01:22.265Z,101534.41
2023-06-08T03:03:53.502Z,101533.50
2023-06-08T03:06:20.966Z,101530.59
2023-06-08T03:08:55.608Z,101532.56
2023-06-08T03:11:23.829Z,101535.69
2023-06-08T03:13:50.862Z,101529.28
2023-06-08T03:16:17.752Z,101532.69
2023-06-08T03:18:45.610Z,101535.00
2023-06-08T03:21:13.874Z,101535.47
2023-06-08T03:23:40.730Z,101530.75
2023-06-08T03:26:07.472Z,101534.97
2023-06-08T03:28:34.348Z,101539.63
2023-06-08T03:31:01.244Z,101546.66
2023-06-08T03:33:28.503Z,101546.47
2023-06-08T03:35:55.447Z,101556.06
2023-06-08T03:38:22.718Z,101549.66
2023-06-08T03:40:49.740Z,101547.00
2023-06-08T03:43:16.792Z,101550.56
2023-06-08T03:45:43.570Z,101561.06
2023-06-08T03:48:10.400Z,101559.16
2023-06-08T03:50:37.086Z,101569.13
2023-06-08T03:53:03.857Z,101570.75
2023-06-08T03:55:31.378Z,101574.00
2023-06-08T03:57:58.251Z,101574.38
2023-06-08T04:00:25.184Z,101573.59
2023-06-08T04:02:53.970Z,101579.72
2023-06-08T04:05:20.892Z,101586.06
2023-06-08T04:07:52.041Z,101586.34
2023-06-08T04:10:21.066Z,101591.84
2023-06-08T04:12:48.384Z,101593.25
2023-06-08T04:15:15.406Z,101588.75
2023-06-08T04:17:43.241Z,101586.91
2023-06-08T04:20:12.348Z,101581.06
2023-06-08T04:22:39.285Z,101578.88
2023-06-08T04:25:06.774Z,101578.00
2023-06-08T04:27:35.722Z,101573.72
2023-06-08T04:30:03.598Z,101582.44
2023-06-08T04:32:30.908Z,101588.69
2023-06-08T04:34:57.788Z,101582.72
2023-06-08T04:37:25.053Z,101587.06
2023-06-08T04:39:52.905Z,101590.59
2023-06-08T04:42:20.639Z,101585.34
2023-06-08T04:44:47.723Z,101604.00
2023-06-08T04:47:15.888Z,101605.16
2023-06-08T04:49:43.182Z,101605.72
2023-06-08T04:52:11.069Z,101613.03
2023-06-08T04:54:37.846Z,101619.84
2023-06-08T04:57:04.976Z,101612.50
2023-06-08T04:59:31.728Z,101626.56
2023-06-08T05:01:58.528Z,101628.16
2023-06-08T05:04:26.303Z,101628.53
2023-06-08T05:06:53.075Z,101640.97
2023-06-08T05:09:19.801Z,101644.47
2023-06-08T05:11:48.384Z,101649.63
2023-06-08T05:14:16.189Z,101652.03
2023-06-08T05:16:43.011Z,101676.06
2023-06-08T05:19:10.024Z,101684.22
2023-06-08T05:21:38.858Z,101686.81
2023-06-08T05:24:06.014Z,101697.06
2023-06-08T05:26:33.077Z,101709.69
2023-06-08T05:29:00.172Z,101712.50
2023-06-08T05:31:28.004Z,101719.63
2023-06-08T05:33:54.776Z,101729.41
2023-06-08T05:36:21.472Z,101740.31
2023-06-08T05:38:48.250Z,101744.97
2023-06-08T05:41:15.221Z,101750.69
2023-06-08T05:43:43.823Z,101764.47
2023-06-08T05:46:11.972Z,101773.63
2023-06-08T05:48:38.977Z,101803.31
2023-06-08T05:51:05.917Z,101800.50
2023-06-08T05:53:32.669Z,101808.47
2023-06-08T05:56:02.337Z,101818.00
2023-06-08T05:58:40.976Z,101836.41
2023-06-08T06:01:15.556Z,101848.38
2023-06-08T06:03:45.626Z,101846.72
2023-06-08T06:06:12.679Z,101859.25
2023-06-08T06:08:41.425Z,101872.06
2023-06-08T06:11:10.548Z,101870.94
2023-06-08T06:13:38.611Z,101875.31
2023-06-08T06:16:05.631Z,101885.84
2023-06-08T06:18:32.498Z,101891.28
2023-06-08T06:21:00.840Z,101891.56
2023-06-08T06:23:27.705Z,101889.06
2023-06-08T06:25:56.675Z,101905.31
2023-06-08T06:28:23.373Z,101908.94
2023-06-08T06:30:50.216Z,101923.06
2023-06-08T06:33:17.027Z,101927.06
2023-06-08T06:35:45.541Z,101937.25
2023-06-08T06:38:12.329Z,101953.59
2023-06-08T06:40:39.068Z,101957.41
2023-06-08T06:43:05.798Z,101946.31
2023-06-08T06:45:32.599Z,101966.44
2023-06-08T06:47:59.396Z,101981.13
2023-06-08T06:50:26.913Z,102071.03
2023-06-08T06:52:53.693Z,102084.78
2023-06-08T06:55:20.689Z,102098.16
2023-06-08T06:57:49.656Z,102104.88
2023-06-08T07:00:17.203Z,102116.81
2023-06-08T07:02:44.043Z,102127.03
2023-06-08T07:05:12.341Z,102130.06
2023-06-08T07:07:39.613Z,102132.22
2023-06-08T07:10:07.207Z,102114.72
2023-06-08T07:12:34.243Z,102142.72
2023-06-08T07:15:01.047Z,102148.72
2023-06-08T07:17:28.118Z,102145.09
2023-06-08T07:19:54.866Z,102146.34
2023-06-08T07:22:26.624Z,102148.16
2023-06-08T07:25:41.046Z,102139.34
2023-06-08T07:27:43.010Z,102138.59
2023-06-08T07:30:10.013Z,102133.78
2023-06-08T07:32:36.743Z,102124.00
2023-06-08T07:35:05.462Z,102131.59
2023-06-08T07:37:36.416Z,102133.63
2023-06-08T07:40:07.303Z,102138.38
2023-06-08T07:42:34.782Z,102156.00
2023-06-08T07:45:02.274Z,102156.88
2023-06-08T07:47:29.321Z,102148.66
2023-06-08T07:49:57.084Z,102167.66
2023-06-08T07:52:24.118Z,102170.34
2023-06-08T07:54:51.095Z,102171.53
2023-06-08T07:57:19.738Z,102150.78
2023-06-08T07:59:46.544Z,102142.75
2023-06-08T08:02:13.458Z,102142.66
2023-06-08T08:04:40.330Z,102145.34
2023-06-08T08:07:07.573Z,102150.19
2023-06-08T08:09:34.634Z,102138.66
2023-06-08T08:12:01.391Z,102154.31
2023-06-08T08:14:28.596Z,102140.34
2023-06-08T08:16:58.325Z,102149.19
2023-06-08T08:19:25.232Z,102150.00
2023-06-08T08:21:51.995Z,102143.16
2023-06-08T08:24:19.423Z,102124.72
2023-06-08T08:26:46.187Z,102125.28
2023-06-08T08:29:12.883Z,102139.47
2023-06-08T08:31:39.723Z,102121.47
2023-06-08T08:34:06.735Z,102123.75
2023-06-08T08:36:33.451Z,102127.06
2023-06-08T08:39:00.509Z,102129.09
2023-06-08T08:41:32.052Z,102126.34
2023-06-08T08:44:09.497Z,102129.00
2023-06-08T08:46:38.871Z,102112.34
2023-06-08T08:49:25.879Z,102120.28
2023-06-08T08:51:53.900Z,102114.75
2023-06-08T08:54:35.140Z,102111.31
2023-06-08T08:57:02.273Z,102103.03
2023-06-08T08:59:29.855Z,102105.88
2023-06-08T09:02:03.908Z,102116.13
2023-06-08T09:04:30.892Z,102120.44
2023-06-08T09:06:57.998Z,102104.84
2023-06-08T09:09:24.895Z,102111.38
2023-06-08T09:11:59.976Z,102119.50
2023-06-08T09:14:27.771Z,102090.97
2023-06-08T09:16:55.755Z,102099.97
2023-06-08T09:19:23.842Z,102084.63
2023-06-08T09:21:50.609Z,102088.53
2023-06-08T09:24:23.982Z,102083.66
2023-06-08T09:27:00.684Z,102079.59
2023-06-08T09:29:41.398Z,102058.19
2023-06-08T09:32:17.520Z,102059.03
2023-06-08T09:34:51.618Z,102062.22
2023-06-08T09:37:20.400Z,102057.97
2023-06-08T09:39:47.407Z,102048.97
2023-06-08T09:42:14.266Z,102059.22
2023-06-08T09:44:41.429Z,102033.38
2023-06-08T09:47:27.711Z,102052.50
2023-06-08T09:49:55.815Z,102044.25
2023-06-08T09:52:24.728Z,102046.59
2023-06-08T09:54:52.890Z,102045.69
2023-06-08T09:57:21.760Z,102035.28
2023-06-08T10:00:09.335Z,102075.25
2023-06-08T10:02:42.495Z,102044.84
2023-06-08T10:05:14.661Z,102021.16
2023-06-08T10:07:45.514Z,102012.91
2023-06-08T10:10:18.825Z,102014.75
2023-06-08T10:12:46.212Z,102015.25
2023-06-08T10:15:13.340Z,101982.84
2023-06-08T10:17:41.538Z,102003.41
2023-06-08T10:20:09.008Z,102014.56
2023-06-08T10:22:38.043Z,102000.75
2023-06-08T10:25:09.707Z,101978.56
2023-06-08T10:30:07.200Z,101921.03
2023-06-08T10:32:36.305Z,101953.69
2023-06-08T10:35:09.371Z,101946.44
2023-06-08T10:37:38.288Z,101930.94
2023-06-08T10:40:09.968Z,101860.88
2023-06-08T10:42:36.726Z,101883.41
2023-06-08T10:45:08.097Z,101901.53
2023-06-08T10:47:37.957Z,101894.47
2023-06-08T10:50:07.609Z,101926.59
2023-06-08T10:53:01.428Z,101916.16
2023-06-08T10:55:29.349Z,101930.47
2023-06-08T10:58:06.460Z,101927.13
2023-06-08T11:00:43.234Z,101905.91
2023-06-08T11:03:13.164Z,101871.53
2023-06-08T11:05:42.848Z,101895.91
2023-06-08T11:08:11.492Z,101900.75
2023-06-08T11:10:40.876Z,101885.59
2023-06-08T11:13:12.221Z,101889.31
2023-06-08T11:15:43.763Z,101872.88
2023-06-08T11:18:11.843Z,101939.41
2023-06-08T11:20:41.222Z,101961.50
2023-06-08T11:23:12.215Z,101936.25
2023-06-08T11:25:39.949Z,101916.72
2023-06-08T11:28:09.825Z,101936.84
2023-06-08T11:30:36.600Z,101925.81
2023-06-08T11:33:08.352Z,101918.16
2023-06-08T11:35:35.814Z,101897.03
2023-06-08T11:38:04.157Z,101918.03
2023-06-08T11:40:32.044Z,101909.50
2023-06-08T11:42:58.915Z,101888.25
2023-06-08T11:45:26.640Z,101910.47
2023-06-08T11:48:14.768Z,101928.66
2023-06-08T11:50:50.447Z,101899.06
2023-06-08T11:53:26.403Z,101883.97
2023-06-08T11:55:54.718Z,101909.50
2023-06-08T11:58:26.302Z,101923.53
2023-06-08T12:01:04.323Z,101924.81
2023-06-08T12:03:43.495Z,101939.91
2023-06-08T12:06:10.953Z,101946.38
2023-06-08T12:08:37.885Z,101933.13
2023-06-08T12:11:10.183Z,101924.41
2023-06-08T12:13:39.480Z,101933.13
2023-06-08T12:16:08.161Z,101922.00
2023-06-08T12:18:42.547Z,101906.28
2023-06-08T12:21:11.078Z,101862.28
2023-06-08T12:23:37.958Z,101888.97
2023-06-08T12:26:06.961Z,101851.66
2023-06-08T12:28:33.954Z,101853.75
2023-06-08T12:31:03.151Z,101840.41
2023-06-08T12:33:32.074Z,101824.25
2023-06-08T12:35:58.831Z,101824.78
2023-06-08T12:38:25.639Z,101839.31
2023-06-08T12:40:53.845Z,101847.91
2023-06-08T12:43:22.438Z,101876.28
2023-06-08T12:45:50.689Z,101857.91
2023-06-08T12:48:17.916Z,101883.56
2023-06-08T12:50:44.631Z,101930.75
2023-06-08T12:53:11.408Z,101918.81
2023-06-08T12:55:38.172Z,101894.41
2023-06-08T12:58:05.363Z,101913.53
2023-06-08T13:00:32.407Z,101843.31
2023-06-08T13:02:59.369Z,101884.38
2023-06-08T13:05:27.847Z,101869.38
2023-06-08T13:07:54.672Z,101879.25
2023-06-08T13:10:21.725Z,101859.63
2023-06-08T13:12:51.076Z,101872.25
2023-06-08T13:15:20.009Z,101835.75
2023-06-08T13:17:47.084Z,101861.22
2023-06-08T13:20:14.519Z,101813.75
2023-06-08T13:22:41.597Z,101783.16
2023-06-08T13:25:08.706Z,101770.47
2023-06-08T13:27:35.468Z,101816.34
2023-06-08T13:30:02.200Z,101827.94
2023-06-08T13:32:29.258Z,101827.47
2023-06-08T13:34:57.616Z,101800.28
2023-06-08T13:37:24.600Z,101804.41
2023-06-08T13:39:51.354Z,101769.38
2023-06-08T13:42:19.469Z,101781.47
2023-06-08T13:44:48.985Z,101828.06
2023-06-08T13:47:15.841Z,101851.09
2023-06-08T13:49:46.366Z,101868.59
2023-06-08T13:52:14.190Z,101819.72
2023-06-08T13:54:41.276Z,101865.13
2023-06-08T13:57:08.401Z,101897.75
2023-06-08T13:59:35.473Z,101874.34
2023-06-08T14:02:04.591Z,101895.41
2023-06-08T14:04:31.888Z,101896.34
2023-06-08T14:06:58.768Z,101880.03
2023-06-08T14:09:26.129Z,101913.59
2023-06-08T14:11:52.934Z,101865.53
2023-06-08T14:14:19.746Z,101879.41
2023-06-08T14:16:46.573Z,101878.41
2023-06-08T14:19:14.984Z,101874.19
2023-06-08T14:21:42.047Z,101859.59
2023-06-08T14:24:09.291Z,101913.81
2023-06-08T14:26:36.108Z,101890.19
2023-06-08T14:29:03.203Z,101861.16
2023-06-08T14:31:30.597Z,101874.69
2023-06-08T14:33:58.056Z,101843.53
2023-06-08T14:36:25.519Z,101841.16
2023-06-08T14:38:52.795Z,101825.03
2023-06-08T14:41:20.159Z,101841.91
2023-06-08T14:43:52.012Z,101834.47
2023-06-08T14:46:20.361Z,101831.53
2023-06-08T14:48:47.207Z,101821.03
2023-06-08T14:51:28.415Z,101846.44
2023-06-08T14:54:03.727Z,101811.38
2023-06-08T14:56:30.804Z,101799.72
2023-06-08T14:58:57.572Z,101794.63
2023-06-08T15:01:24.369Z,101822.28
2023-06-08T15:03:51.259Z,101836.94
2023-06-08T15:06:18.026Z,101849.63
2023-06-08T15:08:44.894Z,101852.94
2023-06-08T15:11:11.568Z,101858.44
2023-06-08T15:13:43.305Z,101858.16
2023-06-08T15:16:10.658Z,101851.50
2023-06-08T15:18:37.397Z,101872.78
2023-06-08T15:21:04.186Z,101876.59
2023-06-08T15:23:31.057Z,101858.81
2023-06-08T15:25:57.847Z,101836.75
2023-06-08T15:28:25.387Z,101844.03
2023-06-08T15:30:53.964Z,101818.44
2023-06-08T15:33:20.726Z,101840.75
2023-06-08T15:35:47.409Z,101857.78
2023-06-08T15:38:15.250Z,101855.03
2023-06-08T15:40:42.233Z,101852.06
2023-06-08T15:43:09.030Z,101855.16
2023-06-08T15:45:35.900Z,101841.88
2023-06-08T15:48:02.687Z,101824.44
2023-06-08T15:50:29.576Z,101810.72
2023-06-08T15:52:56.289Z,101818.81
2023-06-08T15:55:23.030Z,101802.09
2023-06-08T15:57:49.898Z,101809.66
2023-06-08T16:00:17.038Z,101827.22
2023-06-08T16:02:43.792Z,101810.25
2023-06-08T16:05:10.636Z,101802.16
2023-06-08T16:07:37.446Z,101831.41
2023-06-08T16:10:04.915Z,101841.25
2023-06-08T16:12:33.309Z,101781.41
2023-06-08T16:15:00.587Z,101790.28
2023-06-08T16:17:27.528Z,101806.38
2023-06-08T16:19:54.332Z,101819.19
2023-06-08T16:22:21.052Z,101812.50
2023-06-08T16:24:47.816Z,101805.94
2023-06-08T16:27:16.190Z,101792.19
2023-06-08T16:29:44.837Z,101805.56
2023-06-08T16:32:16.066Z,101806.19
2023-06-08T16:34:42.980Z,101798.41
2023-06-08T16:37:09.710Z,101815.41
2023-06-08T16:39:36.444Z,101823.47
2023-06-08T16:42:03.976Z,101840.97
2023-06-08T16:44:31.840Z,101827.56
2023-06-08T16:47:02.027Z,101808.22
2023-06-08T16:49:28.721Z,101829.31
2023-06-08T16:51:55.674Z,101829.09
2023-06-08T16:54:22.394Z,101826.38
2023-06-08T16:56:49.119Z,101825.69
2023-06-08T16:59:15.932Z,101828.34
2023-06-08T17:01:42.852Z,101811.81
2023-06-08T17:04:09.733Z,101826.78
2023-06-08T17:06:37.235Z,101813.94
2023-06-08T17:09:04.358Z,101827.34
2023-06-08T17:11:32.249Z,101834.13
2023-06-08T17:13:59.781Z,101832.38
2023-06-08T17:16:28.090Z,101840.53
2023-06-08T17:18:54.990Z,101840.38
2023-06-08T17:21:23.934Z,101846.81
2023-06-08T17:23:52.108Z,101829.66
2023-06-08T17:26:19.355Z,101829.50
2023-06-08T17:28:46.309Z,101834.19
2023-06-08T17:31:13.509Z,101829.66
2023-06-08T17:33:40.392Z,101836.78
2023-06-08T17:36:11.627Z,101840.91
2023-06-08T17:38:38.441Z,101846.28
2023-06-08T17:41:05.192Z,101853.38
2023-06-08T17:43:32.027Z,101857.00
2023-06-08T17:45:59.165Z,101857.78
2023-06-08T17:48:25.885Z,101852.25
2023-06-08T17:50:52.605Z,101849.56
2023-06-08T17:53:19.605Z,101847.81
2023-06-08T17:55:46.429Z,101855.84
2023-06-08T17:58:13.280Z,101859.91
2023-06-08T18:00:40.065Z,101857.03
2023-06-08T18:03:08.067Z,101854.66
2023-06-08T18:05:35.375Z,101854.13
2023-06-08T18:08:02.175Z,101868.00
2023-06-08T18:10:29.039Z,101870.88
2023-06-08T18:12:57.833Z,101865.84
2023-06-08T18:15:24.515Z,101862.78
2023-06-08T18:17:51.334Z,101867.84
2023-06-08T18:20:18.889Z,101869.00
2023-06-08T18:22:45.664Z,101877.56
2023-06-08T18:25:13.639Z,101874.09
2023-06-08T18:27:41.458Z,101871.34
2023-06-08T18:30:12.346Z,101863.41
2023-06-08T18:32:40.484Z,101869.16
2023-06-08T18:35:07.891Z,101849.16
2023-06-08T18:37:35.297Z,101832.78
2023-06-08T18:40:02.361Z,101830.91
2023-06-08T18:42:29.221Z,101817.56
2023-06-08T18:44:59.210Z,101821.44
2023-06-08T18:47:27.191Z,101801.19
2023-06-08T18:49:54.003Z,101823.75
2023-06-08T18:52:20.875Z,101809.34
2023-06-08T18:54:47.708Z,101809.53
2023-06-08T18:57:14.551Z,101808.28
2023-06-08T18:59:42.667Z,101813.69
2023-06-08T19:02:11.408Z,101803.28
2023-06-08T19:04:38.141Z,101791.47
2023-06-08T19:07:05.311Z,101799.97
2023-06-08T19:09:32.038Z,101806.84
2023-06-08T19:11:58.915Z,101827.78
2023-06-08T19:14:27.479Z,101843.97
2023-06-08T19:16:54.938Z,101865.31
2023-06-08T19:19:22.884Z,101888.97
2023-06-08T19:21:52.382Z,101894.34
2023-06-08T19:24:19.275Z,101888.81
2023-06-08T19:26:49.047Z,101901.13
2023-06-08T19:29:15.756Z,101901.47
2023-06-08T19:31:42.491Z,101909.25
2023-06-08T19:34:09.239Z,101905.16
2023-06-08T19:36:35.968Z,101911.19
2023-06-08T19:39:02.720Z,101916.25
2023-06-08T19:41:29.569Z,101928.13
2023-06-08T19:43:56.422Z,101928.91
2023-06-08T19:46:24.571Z,101924.25
2023-06-08T19:48:52.278Z,101935.31
2023-06-08T19:51:19.633Z,101942.34
2023-06-08T19:53:46.359Z,101933.44
2023-06-08T19:56:13.109Z,101948.13
2023-06-08T19:58:42.761Z,101957.84
2023-06-08T20:01:10.120Z,101957.66
2023-06-08T20:03:37.055Z,101955.44
2023-06-08T20:06:04.052Z,101965.78
2023-06-08T20:08:33.198Z,101962.94
2023-06-08T20:10:59.924Z,101968.28
2023-06-08T20:13:28.315Z,101966.78
2023-06-08T20:15:55.132Z,101974.53
2023-06-08T20:18:23.137Z,101971.69
2023-06-08T20:20:50.698Z,101973.38
2023-06-08T20:23:17.888Z,101979.84
2023-06-08T20:25:45.795Z,101987.56
2023-06-08T20:28:12.836Z,101987.16
2023-06-08T20:30:39.648Z,101990.25
2023-06-08T20:33:06.787Z,101996.53
2023-06-08T20:35:33.797Z,102013.66
2023-06-08T20:38:01.502Z,102005.56
2023-06-08T20:40:28.389Z,102008.69
2023-06-08T20:42:55.270Z,102003.34
2023-06-08T20:45:22.567Z,102005.84
2023-06-08T20:47:49.768Z,102008.34
2023-06-08T20:50:16.597Z,102009.56
2023-06-08T20:52:43.675Z,102015.44
2023-06-08T20:55:10.843Z,102014.75
2023-06-08T20:57:37.834Z,102015.63
2023-06-08T21:00:11.663Z,102017.03
2023-06-08T21:02:48.697Z,102018.06
2023-06-08T21:05:21.234Z,102024.66
2023-06-08T21:07:48.776Z,102011.75
2023-06-08T21:10:21.656Z,102025.47
2023-06-08T21:12:48.368Z,102027.44
2023-06-08T21:15:16.767Z,102028.09
2023-06-08T21:17:43.858Z,102026.06
2023-06-08T21:20:11.388Z,102032.84
2023-06-08T21:22:39.746Z,102038.47
2023-06-08T21:25:07.217Z,102040.00
2023-06-08T21:27:34.170Z,102031.78
2023-06-08T21:30:01.493Z,102037.69
2023-06-08T21:32:28.220Z,102038.25
2023-06-08T21:34:54.997Z,102038.69
2023-06-08T21:37:21.693Z,102034.81
2023-06-08T21:39:48.565Z,102039.94
2023-06-08T21:42:15.291Z,102039.59
2023-06-08T21:44:42.063Z,102040.41
2023-06-08T21:47:08.860Z,102036.81
2023-06-08T21:49:36.494Z,102047.25
2023-06-08T21:52:03.570Z,102039.13
2023-06-08T21:54:30.271Z,102035.75
2023-06-08T21:56:58.712Z,102031.06
2023-06-08T21:59:25.397Z,102039.69
2023-06-08T22:01:52.711Z,102041.91
2023-06-08T22:04:19.665Z,102038.78
2023-06-08T22:06:47.238Z,102038.72
2023-06-08T22:09:14.063Z,102044.41
2023-06-08T22:11:40.843Z,102040.16
2023-06-08T22:14:11.348Z,102042.13
2023-06-08T22:16:38.774Z,102045.25
2023-06-08T22:19:07.507Z,102043.81
2023-06-08T22:21:36.440Z,102036.13
2023-06-08T22:24:03.888Z,102038.97
2023-06-08T22:26:30.712Z,102043.41
2023-06-08T22:28:57.863Z,102044.09
2023-06-08T22:31:25.485Z,102049.25
2023-06-08T22:33:52.414Z,102039.44
2023-06-08T22:36:19.359Z,102042.66
2023-06-08T22:38:46.094Z,102040.03
2023-06-08T22:41:12.826Z,102035.25
2023-06-08T22:43:39.617Z,102034.47
2023-06-08T22:46:06.437Z,102020.84
2023-06-08T22:48:33.444Z,102020.53
2023-06-08T22:51:00.804Z,102019.09
2023-06-08T22:53:35.839Z,102015.47
2023-06-08T22:56:02.586Z,102010.22
2023-06-08T22:58:29.513Z,102029.28
2023-06-08T23:00:57.917Z,102026.69
2023-06-08T23:03:25.342Z,102020.88
2023-06-08T23:05:54.855Z,102017.59
2023-06-08T23:08:21.938Z,102024.06
2023-06-08T23:10:50.170Z,102027.41
2023-06-08T23:13:21.130Z,102013.38
2023-06-08T23:15:49.903Z,102009.88
2023-06-08T23:18:16.789Z,102010.91
2023-06-08T23:20:43.539Z,102011.34
2023-06-08T23:23:10.396Z,102011.88
2023-06-08T23:25:37.979Z,102021.72
2023-06-08T23:28:04.883Z,102018.59
2023-06-08T23:30:32.307Z,102021.78
2023-06-08T23:32:59.112Z,102033.47
2023-06-08T23:35:26.935Z,102033.88
2023-06-08T23:37:54.283Z,102031.03
2023-06-08T23:40:21.142Z,102026.69
2023-06-08T23:42:47.878Z,102025.81
2023-06-08T23:45:17.522Z,102020.03
2023-06-08T23:47:45.372Z,102027.22
2023-06-08T23:50:14.050Z,102026.31
2023-06-08T23:52:41.433Z,102020.50
2023-06-08T23:55:08.854Z,102020.34
2023-06-08T23:57:35.806Z,102018.88
